sensor_id;sensor_type;location;lat;lon;timestamp;temperature;humidity
69204;DHT22;56317;27.658;85.326;2023-12-04T00:00:27;8.50;99.90
69204;DHT22;56317;27.658;85.326;2023-12-04T00:02:53;8.60;99.90
69204;DHT22;56317;27.658;85.326;2023-12-04T00:05:20;8.70;99.90
69204;DHT22;56317;27.658;85.326;2023-12-04T00:07:46;8.80;99.90
69204;DHT22;56317;27.658;85.326;2023-12-04T00:10:13;8.80;99.90
69204;DHT22;56317;27.658;85.326;2023-12-04T00:12:39;8.80;99.90
69204;DHT22;56317;27.658;85.326;2023-12-04T00:15:06;8.90;99.90
69204;DHT22;56317;27.658;85.326;2023-12-04T00:17:33;8.90;99.90
69204;DHT22;56317;27.658;85.326;2023-12-04T00:19:59;8.90;99.90
69204;DHT22;56317;27.658;85.326;2023-12-04T00:22:26;8.90;99.90
69204;DHT22;56317;27.658;85.326;2023-12-04T00:24:54;9.00;99.90
69204;DHT22;56317;27.658;85.326;2023-12-04T00:27:20;9.00;99.90
69204;DHT22;56317;27.658;85.326;2023-12-04T00:29:52;9.00;99.90
69204;DHT22;56317;27.658;85.326;2023-12-04T00:32:19;9.00;99.90
69204;DHT22;56317;27.658;85.326;2023-12-04T00:34:45;9.00;99.90
69204;DHT22;56317;27.658;85.326;2023-12-04T00:37:14;9.00;99.90
69204;DHT22;56317;27.658;85.326;2023-12-04T00:39:41;8.90;99.90
69204;DHT22;56317;27.658;85.326;2023-12-04T00:42:07;9.00;99.90
69204;DHT22;56317;27.658;85.326;2023-12-04T00:44:34;9.00;99.90
69204;DHT22;56317;27.658;85.326;2023-12-04T00:47:00;9.00;99.90
69204;DHT22;56317;27.658;85.326;2023-12-04T00:49:27;9.00;99.90
69204;DHT22;56317;27.658;85.326;2023-12-04T00:51:53;9.00;99.90
69204;DHT22;56317;27.658;85.326;2023-12-04T00:54:20;9.10;99.90
69204;DHT22;56317;27.658;85.326;2023-12-04T00:56:46;9.10;99.90
69204;DHT22;56317;27.658;85.326;2023-12-04T00:59:13;9.20;99.90
69204;DHT22;56317;27.658;85.326;2023-12-04T01:01:39;9.20;99.90
69204;DHT22;56317;27.658;85.326;2023-12-04T01:04:06;9.20;99.90
69204;DHT22;56317;27.658;85.326;2023-12-04T01:06:32;9.30;99.90
69204;DHT22;56317;27.658;85.326;2023-12-04T01:08:59;9.50;99.90
69204;DHT22;56317;27.658;85.326;2023-12-04T01:11:25;9.60;99.90
69204;DHT22;56317;27.658;85.326;2023-12-04T01:13:52;9.80;99.90
69204;DHT22;56317;27.658;85.326;2023-12-04T01:16:18;9.90;99.90
69204;DHT22;56317;27.658;85.326;2023-12-04T01:18:45;10.00;99.90
69204;DHT22;56317;27.658;85.326;2023-12-04T01:21:15;10.10;99.90
69204;DHT22;56317;27.658;85.326;2023-12-04T01:23:41;10.20;99.90
69204;DHT22;56317;27.658;85.326;2023-12-04T01:26:09;10.20;99.90
69204;DHT22;56317;27.658;85.326;2023-12-04T01:28:36;10.30;99.90
69204;DHT22;56317;27.658;85.326;2023-12-04T01:31:02;10.40;99.90
69204;DHT22;56317;27.658;85.326;2023-12-04T01:33:32;10.50;99.90
69204;DHT22;56317;27.658;85.326;2023-12-04T01:35:58;10.60;99.90
69204;DHT22;56317;27.658;85.326;2023-12-04T01:38:25;10.70;99.90
69204;DHT22;56317;27.658;85.326;2023-12-04T01:40:51;10.80;99.90
69204;DHT22;56317;27.658;85.326;2023-12-04T01:43:18;10.90;99.90
69204;DHT22;56317;27.658;85.326;2023-12-04T01:45:45;11.10;99.90
69204;DHT22;56317;27.658;85.326;2023-12-04T01:48:11;11.20;99.90
69204;DHT22;56317;27.658;85.326;2023-12-04T01:50:40;11.30;99.90
69204;DHT22;56317;27.658;85.326;2023-12-04T01:53:06;11.50;99.90
69204;DHT22;56317;27.658;85.326;2023-12-04T01:55:33;11.70;99.90
69204;DHT22;56317;27.658;85.326;2023-12-04T01:58:00;11.90;99.90
69204;DHT22;56317;27.658;85.326;2023-12-04T02:00:29;12.20;99.90
69204;DHT22;56317;27.658;85.326;2023-12-04T02:02:56;12.30;99.90
69204;DHT22;56317;27.658;85.326;2023-12-04T02:05:24;12.50;99.90
69204;DHT22;56317;27.658;85.326;2023-12-04T02:07:50;12.90;99.90
69204;DHT22;56317;27.658;85.326;2023-12-04T02:10:17;13.30;99.90
69204;DHT22;56317;27.658;85.326;2023-12-04T02:12:44;13.70;99.90
69204;DHT22;56317;27.658;85.326;2023-12-04T02:15:10;14.20;99.90
69204;DHT22;56317;27.658;85.326;2023-12-04T02:17:37;14.40;99.90
69204;DHT22;56317;27.658;85.326;2023-12-04T02:20:05;14.40;99.90
69204;DHT22;56317;27.658;85.326;2023-12-04T02:22:32;14.60;99.90
69204;DHT22;56317;27.658;85.326;2023-12-04T02:24:58;14.80;99.90
69204;DHT22;56317;27.658;85.326;2023-12-04T02:27:30;15.10;99.90
69204;DHT22;56317;27.658;85.326;2023-12-04T02:29:58;15.30;99.90
69204;DHT22;56317;27.658;85.326;2023-12-04T02:32:29;15.50;99.90
69204;DHT22;56317;27.658;85.326;2023-12-04T02:34:56;15.50;99.90
69204;DHT22;56317;27.658;85.326;2023-12-04T02:37:23;15.60;99.90
69204;DHT22;56317;27.658;85.326;2023-12-04T02:39:50;15.70;99.90
69204;DHT22;56317;27.658;85.326;2023-12-04T02:42:21;15.90;99.90
69204;DHT22;56317;27.658;85.326;2023-12-04T02:44:54;16.10;99.90
69204;DHT22;56317;27.658;85.326;2023-12-04T02:47:20;16.30;99.90
69204;DHT22;56317;27.658;85.326;2023-12-04T02:49:47;16.70;99.90
69204;DHT22;56317;27.658;85.326;2023-12-04T02:52:27;16.90;99.90
69204;DHT22;56317;27.658;85.326;2023-12-04T02:54:53;17.10;99.90
69204;DHT22;56317;27.658;85.326;2023-12-04T02:57:20;17.10;99.90
69204;DHT22;56317;27.658;85.326;2023-12-04T02:59:47;16.80;99.90
69204;DHT22;56317;27.658;85.326;2023-12-04T03:02:14;16.50;99.90
69204;DHT22;56317;27.658;85.326;2023-12-04T03:04:41;16.20;99.90
69204;DHT22;56317;27.658;85.326;2023-12-04T03:07:07;15.90;99.90
69204;DHT22;56317;27.658;85.326;2023-12-04T03:09:34;15.70;99.90
69204;DHT22;56317;27.658;85.326;2023-12-04T03:12:00;15.50;99.90
69204;DHT22;56317;27.658;85.326;2023-12-04T03:14:29;15.40;99.90
69204;DHT22;56317;27.658;85.326;2023-12-04T03:16:56;15.40;99.90
69204;DHT22;56317;27.658;85.326;2023-12-04T03:19:23;15.30;99.90
69204;DHT22;56317;27.658;85.326;2023-12-04T03:21:52;15.20;99.90
69204;DHT22;56317;27.658;85.326;2023-12-04T03:24:19;15.20;99.90
69204;DHT22;56317;27.658;85.326;2023-12-04T03:26:45;15.20;99.90
69204;DHT22;56317;27.658;85.326;2023-12-04T03:29:12;15.30;99.90
69204;DHT22;56317;27.658;85.326;2023-12-04T03:31:39;15.10;99.90
69204;DHT22;56317;27.658;85.326;2023-12-04T03:34:05;15.10;99.90
69204;DHT22;56317;27.658;85.326;2023-12-04T03:36:32;15.20;99.90
69204;DHT22;56317;27.658;85.326;2023-12-04T03:38:58;15.50;99.90
69204;DHT22;56317;27.658;85.326;2023-12-04T03:41:25;16.00;99.90
69204;DHT22;56317;27.658;85.326;2023-12-04T03:43:52;16.40;99.90
69204;DHT22;56317;27.658;85.326;2023-12-04T03:46:18;17.00;99.90
69204;DHT22;56317;27.658;85.326;2023-12-04T03:48:45;17.40;99.90
69204;DHT22;56317;27.658;85.326;2023-12-04T03:51:11;18.40;99.90
69204;DHT22;56317;27.658;85.326;2023-12-04T03:53:41;19.70;99.90
69204;DHT22;56317;27.658;85.326;2023-12-04T03:56:07;20.80;99.30
69204;DHT22;56317;27.658;85.326;2023-12-04T03:58:34;22.10;97.40
69204;DHT22;56317;27.658;85.326;2023-12-04T04:01:02;23.40;95.50
69204;DHT22;56317;27.658;85.326;2023-12-04T04:03:31;24.40;92.20
69204;DHT22;56317;27.658;85.326;2023-12-04T04:05:58;23.80;90.50
69204;DHT22;56317;27.658;85.326;2023-12-04T04:08:25;24.10;90.00
69204;DHT22;56317;27.658;85.326;2023-12-04T04:10:51;24.10;88.40
69204;DHT22;56317;27.658;85.326;2023-12-04T04:13:18;24.00;87.30
69204;DHT22;56317;27.658;85.326;2023-12-04T04:15:47;24.20;86.70
69204;DHT22;56317;27.658;85.326;2023-12-04T04:18:14;23.90;86.00
69204;DHT22;56317;27.658;85.326;2023-12-04T04:20:40;23.70;84.60
69204;DHT22;56317;27.658;85.326;2023-12-04T04:23:07;23.20;85.00
69204;DHT22;56317;27.658;85.326;2023-12-04T04:25:35;23.20;86.20
69204;DHT22;56317;27.658;85.326;2023-12-04T04:28:02;23.50;85.50
69204;DHT22;56317;27.658;85.326;2023-12-04T04:30:28;23.90;83.20
69204;DHT22;56317;27.658;85.326;2023-12-04T04:32:55;24.10;82.30
69204;DHT22;56317;27.658;85.326;2023-12-04T04:35:30;25.10;81.80
69204;DHT22;56317;27.658;85.326;2023-12-04T04:38:15;25.90;78.20
69204;DHT22;56317;27.658;85.326;2023-12-04T04:43:29;27.20;73.40
69204;DHT22;56317;27.658;85.326;2023-12-04T04:45:56;30.20;70.80
69204;DHT22;56317;27.658;85.326;2023-12-04T04:48:22;30.70;64.00
69204;DHT22;56317;27.658;85.326;2023-12-04T04:50:49;29.80;64.70
69204;DHT22;56317;27.658;85.326;2023-12-04T04:53:15;29.00;64.10
69204;DHT22;56317;27.658;85.326;2023-12-04T04:55:42;28.00;65.10
69204;DHT22;56317;27.658;85.326;2023-12-04T04:58:09;27.40;66.90
69204;DHT22;56317;27.658;85.326;2023-12-04T05:00:47;27.00;66.40
69204;DHT22;56317;27.658;85.326;2023-12-04T05:03:13;26.50;66.60
69204;DHT22;56317;27.658;85.326;2023-12-04T05:05:40;26.90;66.40
69204;DHT22;56317;27.658;85.326;2023-12-04T05:08:06;26.80;64.90
69204;DHT22;56317;27.658;85.326;2023-12-04T05:10:33;25.60;66.10
69204;DHT22;56317;27.658;85.326;2023-12-04T05:12:59;24.70;68.20
69204;DHT22;56317;27.658;85.326;2023-12-04T05:15:26;24.10;69.80
69204;DHT22;56317;27.658;85.326;2023-12-04T05:17:54;23.80;70.60
69204;DHT22;56317;27.658;85.326;2023-12-04T05:20:29;23.70;70.80
69204;DHT22;56317;27.658;85.326;2023-12-04T05:23:06;23.70;71.70
69204;DHT22;56317;27.658;85.326;2023-12-04T05:25:34;23.80;69.90
69204;DHT22;56317;27.658;85.326;2023-12-04T05:28:00;23.60;70.90
69204;DHT22;56317;27.658;85.326;2023-12-04T05:30:27;23.80;70.60
69204;DHT22;56317;27.658;85.326;2023-12-04T05:32:53;24.00;69.10
69204;DHT22;56317;27.658;85.326;2023-12-04T05:35:20;23.70;69.10
69204;DHT22;56317;27.658;85.326;2023-12-04T05:37:47;23.70;72.00
69204;DHT22;56317;27.658;85.326;2023-12-04T05:40:14;23.70;71.70
69204;DHT22;56317;27.658;85.326;2023-12-04T05:42:40;23.70;71.80
69204;DHT22;56317;27.658;85.326;2023-12-04T05:45:16;23.60;70.90
69204;DHT22;56317;27.658;85.326;2023-12-04T05:47:44;23.20;69.00
69204;DHT22;56317;27.658;85.326;2023-12-04T05:50:10;22.80;71.00
69204;DHT22;56317;27.658;85.326;2023-12-04T05:52:37;22.60;72.90
69204;DHT22;56317;27.658;85.326;2023-12-04T05:55:03;22.10;73.50
69204;DHT22;56317;27.658;85.326;2023-12-04T05:57:30;21.80;75.70
69204;DHT22;56317;27.658;85.326;2023-12-04T05:59:57;21.60;76.10
69204;DHT22;56317;27.658;85.326;2023-12-04T06:02:23;21.50;76.10
69204;DHT22;56317;27.658;85.326;2023-12-04T06:04:50;21.30;76.80
69204;DHT22;56317;27.658;85.326;2023-12-04T06:07:16;21.20;77.20
69204;DHT22;56317;27.658;85.326;2023-12-04T06:09:46;21.10;78.10
69204;DHT22;56317;27.658;85.326;2023-12-04T06:12:13;21.10;78.10
69204;DHT22;56317;27.658;85.326;2023-12-04T06:14:40;21.20;78.30
69204;DHT22;56317;27.658;85.326;2023-12-04T06:17:07;21.20;78.20
69204;DHT22;56317;27.658;85.326;2023-12-04T06:19:33;21.30;78.30
69204;DHT22;56317;27.658;85.326;2023-12-04T06:22:00;21.60;78.10
69204;DHT22;56317;27.658;85.326;2023-12-04T06:24:26;22.20;78.30
69204;DHT22;56317;27.658;85.326;2023-12-04T06:26:53;23.30;75.50
69204;DHT22;56317;27.658;85.326;2023-12-04T06:29:20;24.10;71.80
69204;DHT22;56317;27.658;85.326;2023-12-04T06:31:49;23.20;70.70
69204;DHT22;56317;27.658;85.326;2023-12-04T06:34:16;22.50;73.60
69204;DHT22;56317;27.658;85.326;2023-12-04T06:36:43;22.10;74.50
69204;DHT22;56317;27.658;85.326;2023-12-04T06:39:10;21.50;74.30
69204;DHT22;56317;27.658;85.326;2023-12-04T06:41:44;21.10;75.00
69204;DHT22;56317;27.658;85.326;2023-12-04T06:44:12;20.70;75.90
69204;DHT22;56317;27.658;85.326;2023-12-04T06:46:39;20.50;77.00
69204;DHT22;56317;27.658;85.326;2023-12-04T06:49:07;20.30;78.70
69204;DHT22;56317;27.658;85.326;2023-12-04T06:51:35;20.20;77.80
69204;DHT22;56317;27.658;85.326;2023-12-04T06:54:02;20.00;79.30
69204;DHT22;56317;27.658;85.326;2023-12-04T06:56:28;20.00;80.20
69204;DHT22;56317;27.658;85.326;2023-12-04T06:58:55;19.90;80.80
69204;DHT22;56317;27.658;85.326;2023-12-04T07:01:21;19.90;80.90
69204;DHT22;56317;27.658;85.326;2023-12-04T07:03:48;19.60;79.60
69204;DHT22;56317;27.658;85.326;2023-12-04T07:06:15;19.50;80.90
69204;DHT22;56317;27.658;85.326;2023-12-04T07:08:41;19.40;81.40
69204;DHT22;56317;27.658;85.326;2023-12-04T07:11:08;19.30;82.40
69204;DHT22;56317;27.658;85.326;2023-12-04T07:13:35;19.10;81.10
69204;DHT22;56317;27.658;85.326;2023-12-04T07:16:02;19.00;82.20
69204;DHT22;56317;27.658;85.326;2023-12-04T07:18:28;18.90;83.20
69204;DHT22;56317;27.658;85.326;2023-12-04T07:20:55;18.80;82.40
69204;DHT22;56317;27.658;85.326;2023-12-04T07:23:21;18.80;83.40
69204;DHT22;56317;27.658;85.326;2023-12-04T07:25:48;18.80;84.70
69204;DHT22;56317;27.658;85.326;2023-12-04T07:28:15;18.70;83.20
69204;DHT22;56317;27.658;85.326;2023-12-04T07:30:41;18.70;84.60
69204;DHT22;56317;27.658;85.326;2023-12-04T07:33:08;18.70;85.10
69204;DHT22;56317;27.658;85.326;2023-12-04T07:35:34;18.70;84.40
69204;DHT22;56317;27.658;85.326;2023-12-04T07:38:01;18.70;84.50
69204;DHT22;56317;27.658;85.326;2023-12-04T07:40:29;18.80;83.20
69204;DHT22;56317;27.658;85.326;2023-12-04T07:42:55;18.80;83.20
69204;DHT22;56317;27.658;85.326;2023-12-04T07:45:25;18.80;83.10
69204;DHT22;56317;27.658;85.326;2023-12-04T07:47:52;19.00;82.70
69204;DHT22;56317;27.658;85.326;2023-12-04T07:50:19;19.10;82.90
69204;DHT22;56317;27.658;85.326;2023-12-04T07:52:46;19.40;82.90
69204;DHT22;56317;27.658;85.326;2023-12-04T07:55:12;19.60;81.60
69204;DHT22;56317;27.658;85.326;2023-12-04T07:57:39;19.80;81.80
69204;DHT22;56317;27.658;85.326;2023-12-04T08:00:06;20.00;81.40
69204;DHT22;56317;27.658;85.326;2023-12-04T08:02:33;20.10;80.70
69204;DHT22;56317;27.658;85.326;2023-12-04T08:05:00;19.90;80.80
69204;DHT22;56317;27.658;85.326;2023-12-04T08:07:27;19.80;80.60
69204;DHT22;56317;27.658;85.326;2023-12-04T08:09:54;19.90;81.60
69204;DHT22;56317;27.658;85.326;2023-12-04T08:12:21;19.80;81.10
69204;DHT22;56317;27.658;85.326;2023-12-04T08:14:48;19.80;82.00
69204;DHT22;56317;27.658;85.326;2023-12-04T08:17:15;20.00;81.90
69204;DHT22;56317;27.658;85.326;2023-12-04T08:19:41;20.00;80.80
69204;DHT22;56317;27.658;85.326;2023-12-04T08:22:08;19.50;82.70
69204;DHT22;56317;27.658;85.326;2023-12-04T08:24:34;19.30;83.10
69204;DHT22;56317;27.658;85.326;2023-12-04T08:27:01;19.30;83.80
69204;DHT22;56317;27.658;85.326;2023-12-04T08:29:27;19.50;83.80
69204;DHT22;56317;27.658;85.326;2023-12-04T08:31:54;19.80;83.90
69204;DHT22;56317;27.658;85.326;2023-12-04T08:34:21;20.10;83.00
69204;DHT22;56317;27.658;85.326;2023-12-04T08:36:47;20.10;82.40
69204;DHT22;56317;27.658;85.326;2023-12-04T08:39:14;20.00;82.90
69204;DHT22;56317;27.658;85.326;2023-12-04T08:41:41;19.80;83.90
69204;DHT22;56317;27.658;85.326;2023-12-04T08:44:10;19.40;85.40
69204;DHT22;56317;27.658;85.326;2023-12-04T08:46:40;19.40;84.90
69204;DHT22;56317;27.658;85.326;2023-12-04T08:49:06;19.50;84.90
69204;DHT22;56317;27.658;85.326;2023-12-04T08:51:33;19.20;81.80
69204;DHT22;56317;27.658;85.326;2023-12-04T08:53:59;19.20;82.00
69204;DHT22;56317;27.658;85.326;2023-12-04T08:56:26;19.50;80.80
69204;DHT22;56317;27.658;85.326;2023-12-04T08:58:55;19.90;79.10
69204;DHT22;56317;27.658;85.326;2023-12-04T09:01:23;20.40;78.90
69204;DHT22;56317;27.658;85.326;2023-12-04T09:03:51;21.20;78.40
69204;DHT22;56317;27.658;85.326;2023-12-04T09:06:18;22.20;77.00
69204;DHT22;56317;27.658;85.326;2023-12-04T09:08:45;23.00;75.90
69204;DHT22;56317;27.658;85.326;2023-12-04T09:11:11;23.30;75.00
69204;DHT22;56317;27.658;85.326;2023-12-04T09:13:38;23.50;73.60
69204;DHT22;56317;27.658;85.326;2023-12-04T09:16:05;23.70;72.50
69204;DHT22;56317;27.658;85.326;2023-12-04T09:18:31;23.50;72.60
69204;DHT22;56317;27.658;85.326;2023-12-04T09:20:58;23.20;73.20
69204;DHT22;56317;27.658;85.326;2023-12-04T09:23:25;22.80;72.20
69204;DHT22;56317;27.658;85.326;2023-12-04T09:25:51;22.50;73.20
69204;DHT22;56317;27.658;85.326;2023-12-04T09:28:18;22.40;74.00
69204;DHT22;56317;27.658;85.326;2023-12-04T09:30:44;22.40;74.70
69204;DHT22;56317;27.658;85.326;2023-12-04T09:33:11;22.50;74.90
69204;DHT22;56317;27.658;85.326;2023-12-04T09:35:38;23.00;75.00
69204;DHT22;56317;27.658;85.326;2023-12-04T09:38:07;24.80;72.00
69204;DHT22;56317;27.658;85.326;2023-12-04T09:40:34;25.20;70.10
69204;DHT22;56317;27.658;85.326;2023-12-04T09:43:00;25.40;69.50
69204;DHT22;56317;27.658;85.326;2023-12-04T09:45:27;27.50;67.50
69204;DHT22;56317;27.658;85.326;2023-12-04T09:47:55;28.10;64.00
69204;DHT22;56317;27.658;85.326;2023-12-04T09:50:23;27.30;64.40
69204;DHT22;56317;27.658;85.326;2023-12-04T09:52:50;26.60;65.80
69204;DHT22;56317;27.658;85.326;2023-12-04T09:55:25;26.40;65.30
69204;DHT22;56317;27.658;85.326;2023-12-04T09:57:52;27.20;65.10
69204;DHT22;56317;27.658;85.326;2023-12-04T10:00:20;28.20;63.30
69204;DHT22;56317;27.658;85.326;2023-12-04T10:02:47;28.80;64.00
69204;DHT22;56317;27.658;85.326;2023-12-04T10:05:14;29.80;62.00
69204;DHT22;56317;27.658;85.326;2023-12-04T10:07:41;31.50;60.20
69204;DHT22;56317;27.658;85.326;2023-12-04T10:10:08;33.00;57.00
69204;DHT22;56317;27.658;85.326;2023-12-04T10:12:35;33.60;55.30
69204;DHT22;56317;27.658;85.326;2023-12-04T10:15:03;33.30;55.50
69204;DHT22;56317;27.658;85.326;2023-12-04T10:17:34;32.70;56.10
69204;DHT22;56317;27.658;85.326;2023-12-04T10:20:20;31.70;54.80
69204;DHT22;56317;27.658;85.326;2023-12-04T10:22:57;29.40;57.10
69204;DHT22;56317;27.658;85.326;2023-12-04T10:25:25;28.10;60.00
69204;DHT22;56317;27.658;85.326;2023-12-04T10:27:53;27.70;60.70
69204;DHT22;56317;27.658;85.326;2023-12-04T10:32:55;27.10;62.80
69204;DHT22;56317;27.658;85.326;2023-12-04T10:35:22;26.50;62.30
69204;DHT22;56317;27.658;85.326;2023-12-04T10:37:52;25.40;63.80
69204;DHT22;56317;27.658;85.326;2023-12-04T10:40:26;24.50;65.90
69204;DHT22;56317;27.658;85.326;2023-12-04T10:45:52;22.60;65.70
69204;DHT22;56317;27.658;85.326;2023-12-04T10:48:20;21.60;70.80
69204;DHT22;56317;27.658;85.326;2023-12-04T10:50:50;20.90;72.70
69204;DHT22;56317;27.658;85.326;2023-12-04T10:53:16;20.30;72.70
69204;DHT22;56317;27.658;85.326;2023-12-04T10:55:43;19.70;76.30
69204;DHT22;56317;27.658;85.326;2023-12-04T10:58:12;19.20;77.50
69204;DHT22;56317;27.658;85.326;2023-12-04T11:00:46;18.70;76.00
69204;DHT22;56317;27.658;85.326;2023-12-04T11:03:13;18.20;76.10
69204;DHT22;56317;27.658;85.326;2023-12-04T11:05:41;17.80;77.50
69204;DHT22;56317;27.658;85.326;2023-12-04T11:08:15;17.40;78.00
69204;DHT22;56317;27.658;85.326;2023-12-04T11:10:50;17.10;79.40
69204;DHT22;56317;27.658;85.326;2023-12-04T11:13:21;16.90;79.70
69204;DHT22;56317;27.658;85.326;2023-12-04T11:15:48;16.70;81.70
69204;DHT22;56317;27.658;85.326;2023-12-04T11:18:21;16.50;81.70
69204;DHT22;56317;27.658;85.326;2023-12-04T11:20:54;16.30;82.60
69204;DHT22;56317;27.658;85.326;2023-12-04T11:23:22;16.10;84.10
69204;DHT22;56317;27.658;85.326;2023-12-04T11:25:49;15.90;84.60
69204;DHT22;56317;27.658;85.326;2023-12-04T11:28:26;15.60;85.10
69204;DHT22;56317;27.658;85.326;2023-12-04T11:30:53;15.40;85.60
69204;DHT22;56317;27.658;85.326;2023-12-04T11:33:20;15.20;87.90
69204;DHT22;56317;27.658;85.326;2023-12-04T11:35:47;15.00;88.10
69204;DHT22;56317;27.658;85.326;2023-12-04T11:38:13;14.80;88.10
69204;DHT22;56317;27.658;85.326;2023-12-04T11:40:41;14.60;87.80
69204;DHT22;56317;27.658;85.326;2023-12-04T11:43:26;14.40;87.90
69204;DHT22;56317;27.658;85.326;2023-12-04T11:45:53;14.30;90.40
69204;DHT22;56317;27.658;85.326;2023-12-04T11:48:23;14.10;90.50
69204;DHT22;56317;27.658;85.326;2023-12-04T11:50:53;14.00;90.70
69204;DHT22;56317;27.658;85.326;2023-12-04T11:53:22;14.00;91.40
69204;DHT22;56317;27.658;85.326;2023-12-04T11:55:49;14.10;91.90
69204;DHT22;56317;27.658;85.326;2023-12-04T11:58:16;14.10;91.60
69204;DHT22;56317;27.658;85.326;2023-12-04T12:00:42;14.10;93.10
69204;DHT22;56317;27.658;85.326;2023-12-04T12:03:09;14.20;92.90
69204;DHT22;56317;27.658;85.326;2023-12-04T12:05:36;14.20;93.80
69204;DHT22;56317;27.658;85.326;2023-12-04T12:08:05;14.20;93.70
69204;DHT22;56317;27.658;85.326;2023-12-04T12:10:32;14.20;94.00
69204;DHT22;56317;27.658;85.326;2023-12-04T12:12:59;14.10;93.80
69204;DHT22;56317;27.658;85.326;2023-12-04T12:15:27;14.00;93.50
69204;DHT22;56317;27.658;85.326;2023-12-04T12:17:55;13.80;93.20
69204;DHT22;56317;27.658;85.326;2023-12-04T12:20:21;13.70;92.80
69204;DHT22;56317;27.658;85.326;2023-12-04T12:22:48;13.50;93.80
69204;DHT22;56317;27.658;85.326;2023-12-04T12:25:15;13.30;94.60
69204;DHT22;56317;27.658;85.326;2023-12-04T12:27:42;13.20;94.70
69204;DHT22;56317;27.658;85.326;2023-12-04T12:30:09;13.20;95.70
69204;DHT22;56317;27.658;85.326;2023-12-04T12:32:36;13.10;95.60
69204;DHT22;56317;27.658;85.326;2023-12-04T12:35:03;13.00;96.70
69204;DHT22;56317;27.658;85.326;2023-12-04T12:37:29;13.10;97.00
69204;DHT22;56317;27.658;85.326;2023-12-04T12:39:56;13.00;96.70
69204;DHT22;56317;27.658;85.326;2023-12-04T12:42:29;12.90;96.60
69204;DHT22;56317;27.658;85.326;2023-12-04T12:44:56;12.70;97.10
69204;DHT22;56317;27.658;85.326;2023-12-04T12:47:25;12.60;96.70
69204;DHT22;56317;27.658;85.326;2023-12-04T12:49:52;12.30;97.30
69204;DHT22;56317;27.658;85.326;2023-12-04T12:52:19;12.20;97.10
69204;DHT22;56317;27.658;85.326;2023-12-04T12:54:46;12.00;98.90
69204;DHT22;56317;27.658;85.326;2023-12-04T12:57:12;12.00;99.70
69204;DHT22;56317;27.658;85.326;2023-12-04T12:59:39;12.10;99.90
69204;DHT22;56317;27.658;85.326;2023-12-04T13:02:06;12.10;99.90
69204;DHT22;56317;27.658;85.326;2023-12-04T13:04:36;12.10;99.90
69204;DHT22;56317;27.658;85.326;2023-12-04T13:07:03;12.00;99.90
69204;DHT22;56317;27.658;85.326;2023-12-04T13:09:32;12.00;99.90
69204;DHT22;56317;27.658;85.326;2023-12-04T13:11:59;12.00;99.90
69204;DHT22;56317;27.658;85.326;2023-12-04T13:14:34;11.90;99.90
69204;DHT22;56317;27.658;85.326;2023-12-04T13:17:03;11.70;99.90
69204;DHT22;56317;27.658;85.326;2023-12-04T13:19:30;11.50;99.90
69204;DHT22;56317;27.658;85.326;2023-12-04T13:21:57;11.40;99.90
69204;DHT22;56317;27.658;85.326;2023-12-04T13:24:24;11.40;99.90
69204;DHT22;56317;27.658;85.326;2023-12-04T13:26:51;11.40;99.90
69204;DHT22;56317;27.658;85.326;2023-12-04T13:29:18;11.40;99.90
69204;DHT22;56317;27.658;85.326;2023-12-04T13:31:45;11.40;99.90
69204;DHT22;56317;27.658;85.326;2023-12-04T13:34:16;11.20;99.90
69204;DHT22;56317;27.658;85.326;2023-12-04T13:36:42;11.20;99.90
69204;DHT22;56317;27.658;85.326;2023-12-04T13:39:13;11.10;99.90
69204;DHT22;56317;27.658;85.326;2023-12-04T13:41:43;11.20;99.90
69204;DHT22;56317;27.658;85.326;2023-12-04T13:44:28;11.40;99.90
69204;DHT22;56317;27.658;85.326;2023-12-04T13:46:55;11.60;99.90
69204;DHT22;56317;27.658;85.326;2023-12-04T13:49:22;11.80;99.90
69204;DHT22;56317;27.658;85.326;2023-12-04T13:51:48;11.90;99.90
69204;DHT22;56317;27.658;85.326;2023-12-04T13:54:15;12.00;99.90
69204;DHT22;56317;27.658;85.326;2023-12-04T13:56:47;12.00;99.90
69204;DHT22;56317;27.658;85.326;2023-12-04T13:59:20;12.10;99.90
69204;DHT22;56317;27.658;85.326;2023-12-04T14:01:50;12.10;99.90
69204;DHT22;56317;27.658;85.326;2023-12-04T14:04:17;12.10;99.90
69204;DHT22;56317;27.658;85.326;2023-12-04T14:06:44;12.00;99.90
69204;DHT22;56317;27.658;85.326;2023-12-04T14:09:11;12.10;99.90
69204;DHT22;56317;27.658;85.326;2023-12-04T14:11:41;12.10;99.90
69204;DHT22;56317;27.658;85.326;2023-12-04T14:14:09;12.20;99.90
69204;DHT22;56317;27.658;85.326;2023-12-04T14:16:36;12.20;99.90
69204;DHT22;56317;27.658;85.326;2023-12-04T14:19:03;12.20;99.90
69204;DHT22;56317;27.658;85.326;2023-12-04T14:21:33;12.10;99.90
69204;DHT22;56317;27.658;85.326;2023-12-04T14:24:00;12.10;99.90
69204;DHT22;56317;27.658;85.326;2023-12-04T14:26:26;12.00;99.90
69204;DHT22;56317;27.658;85.326;2023-12-04T14:28:53;12.00;99.90
69204;DHT22;56317;27.658;85.326;2023-12-04T14:31:20;11.90;99.90
69204;DHT22;56317;27.658;85.326;2023-12-04T14:33:46;11.80;99.90
69204;DHT22;56317;27.658;85.326;2023-12-04T14:36:13;11.80;99.90
69204;DHT22;56317;27.658;85.326;2023-12-04T14:38:40;11.80;99.90
69204;DHT22;56317;27.658;85.326;2023-12-04T14:41:07;11.80;99.90
69204;DHT22;56317;27.658;85.326;2023-12-04T14:43:35;11.90;99.90
69204;DHT22;56317;27.658;85.326;2023-12-04T14:46:05;12.00;99.90
69204;DHT22;56317;27.658;85.326;2023-12-04T14:48:35;12.00;99.90
69204;DHT22;56317;27.658;85.326;2023-12-04T14:51:02;12.00;99.90
69204;DHT22;56317;27.658;85.326;2023-12-04T14:53:29;12.00;99.90
69204;DHT22;56317;27.658;85.326;2023-12-04T14:56:19;12.10;99.90
69204;DHT22;56317;27.658;85.326;2023-12-04T14:59:03;12.20;99.90
69204;DHT22;56317;27.658;85.326;2023-12-04T15:01:59;12.20;99.90
69204;DHT22;56317;27.658;85.326;2023-12-04T15:04:55;12.20;99.90
69204;DHT22;56317;27.658;85.326;2023-12-04T15:07:30;12.20;99.90
69204;DHT22;56317;27.658;85.326;2023-12-04T15:10:21;12.20;99.90
69204;DHT22;56317;27.658;85.326;2023-12-04T15:13:13;12.20;99.90
69204;DHT22;56317;27.658;85.326;2023-12-04T15:16:07;12.20;99.90
69204;DHT22;56317;27.658;85.326;2023-12-04T15:19:06;12.30;99.90
69204;DHT22;56317;27.658;85.326;2023-12-04T15:21:52;12.30;99.90
69204;DHT22;56317;27.658;85.326;2023-12-04T15:24:19;12.30;99.90
69204;DHT22;56317;27.658;85.326;2023-12-04T15:26:45;12.30;99.90
69204;DHT22;56317;27.658;85.326;2023-12-04T15:29:12;12.40;99.90
69204;DHT22;56317;27.658;85.326;2023-12-04T15:31:40;12.40;99.90